Time;durP1;ratioP1;P1;durP2;ratioP2;P2;SDS_P1;SDS_P2;PMS_P1;PMS_P2;Temp;Humidity;BMP_temperature;BMP_pressure;BME280_temperature;BME280_humidity;BME280_pressure;Samples;Min_cycle;Max_cycle;Signal;HPM_P1;HPM_P2
2022/12/25 00:00:50;;;;;;;30.88;12.18;;;;;;;;;;8178064;29;20054;-93
2022/12/25 00:05:16;;;;;;;33.28;12.43;;;;;;;;;;8177761;29;20424;-93
2022/12/25 00:09:21;;;;;;;30.20;10.88;;;;;;;;;;8161102;29;20052;-92
2022/12/25 00:13:29;;;;;;;27.70;12.10;;;;;;;;;;8176562;29;20052;-93
2022/12/25 00:17:35;;;;;;;22.70;10.82;;;;;;;;;;8161126;29;20194;-93
2022/12/25 00:21:39;;;;;;;31.00;12.15;;;;;;;;;;8167841;29;20047;-93
2022/12/25 00:25:44;;;;;;;29.33;11.95;;;;;;;;;;8166028;29;20106;-96
2022/12/25 00:29:50;;;;;;;30.67;12.35;;;;;;;;;;8163826;29;20058;-95
2022/12/25 00:33:56;;;;;;;30.75;12.55;;;;;;;;;;8163852;29;20043;-94
2022/12/25 00:38:00;;;;;;;28.80;11.75;;;;;;;;;;8165053;29;20044;-95
2022/12/25 00:42:20;;;;;;;31.08;12.95;;;;;;;;;;8162295;29;20039;-95
2022/12/25 00:46:26;;;;;;;35.33;13.32;;;;;;;;;;8163055;29;20058;-95
2022/12/25 00:50:31;;;;;;;31.63;12.65;;;;;;;;;;8179863;29;20134;-94
2022/12/25 00:54:35;;;;;;;34.03;12.63;;;;;;;;;;8165075;29;20043;-94
2022/12/25 00:58:40;;;;;;;30.42;13.40;;;;;;;;;;8183247;29;20102;-94
2022/12/25 01:02:46;;;;;;;36.47;13.25;;;;;;;;;;8182772;29;20047;-94
2022/12/25 01:06:51;;;;;;;34.00;12.57;;;;;;;;;;8165193;29;20107;-94
2022/12/25 01:10:56;;;;;;;31.58;13.13;;;;;;;;;;8181696;29;20047;-93
2022/12/25 01:15:04;;;;;;;36.22;13.20;;;;;;;;;;8181984;29;20050;-94
2022/12/25 01:19:10;;;;;;;39.80;14.43;;;;;;;;;;8182473;29;20044;-95
2022/12/25 01:23:16;;;;;;;33.15;13.63;;;;;;;;;;8182635;29;20035;-95
2022/12/25 01:27:21;;;;;;;42.42;14.48;;;;;;;;;;8164980;29;20039;-93
2022/12/25 01:31:27;;;;;;;29.75;12.23;;;;;;;;;;8180618;29;20059;-93
2022/12/25 01:35:32;;;;;;;36.20;12.60;;;;;;;;;;8180179;29;20044;-94
2022/12/25 01:39:37;;;;;;;32.13;12.75;;;;;;;;;;8164042;29;20051;-93
2022/12/25 01:44:04;;;;;;;28.70;11.75;;;;;;;;;;8163498;29;20051;-94
2022/12/25 01:48:13;;;;;;;24.60;11.30;;;;;;;;;;8161909;29;20088;-94
2022/12/25 01:52:22;;;;;;;25.35;10.98;;;;;;;;;;8145622;29;20048;-93
2022/12/25 01:56:28;;;;;;;24.65;11.25;;;;;;;;;;8161903;29;20052;-93
2022/12/25 02:00:33;;;;;;;25.13;11.38;;;;;;;;;;8146444;29;20051;-94
2022/12/25 02:04:46;;;;;;;27.08;12.40;;;;;;;;;;8147770;29;20091;-94
2022/12/25 02:08:52;;;;;;;;;;;;;;;;;;8147199;29;20048;-94
2022/12/25 02:12:57;;;;;;;26.45;11.18;;;;;;;;;;8145747;29;19919;-93
2022/12/25 02:17:08;;;;;;;31.10;12.85;;;;;;;;;;8145727;29;20048;-94
2022/12/25 02:21:46;;;;;;;26.95;11.23;;;;;;;;;;8144483;29;20052;-94
2022/12/25 02:26:13;;;;;;;33.85;12.38;;;;;;;;;;8148390;29;20056;-95
2022/12/25 02:30:20;;;;;;;27.02;11.52;;;;;;;;;;8150693;29;20052;-94
2022/12/25 02:34:35;;;;;;;25.95;11.43;;;;;;;;;;8145766;29;20059;-93
2022/12/25 02:39:56;;;;;;;22.75;11.52;;;;;;;;;;8145187;29;20056;-94
2022/12/25 03:18:39;;;;;;;34.72;12.82;;;;;;;;;;8146140;29;20117;-94
2022/12/25 03:27:25;;;;;;;32.97;12.35;;;;;;;;;;8145714;29;20115;-94
2022/12/25 03:31:40;;;;;;;26.42;11.52;;;;;;;;;;8143149;29;20055;-94
2022/12/25 03:36:01;;;;;;;28.20;11.25;;;;;;;;;;8142760;29;20052;-95
2022/12/25 04:37:20;;;;;;;42.35;12.55;;;;;;;;;;8173580;29;20123;-93
2022/12/25 04:41:25;;;;;;;40.35;14.48;;;;;;;;;;8173737;29;20072;-94
2022/12/25 04:45:28;;;;;;;55.58;19.83;;;;;;;;;;8173146;29;20130;-94
2022/12/25 04:49:35;;;;;;;47.92;13.60;;;;;;;;;;8156896;29;20118;-94
2022/12/25 04:53:39;;;;;;;45.80;13.27;;;;;;;;;;8174247;29;20043;-95
2022/12/25 04:57:44;;;;;;;42.83;12.27;;;;;;;;;;8157712;29;20090;-94
2022/12/25 05:01:48;;;;;;;45.10;15.18;;;;;;;;;;8157258;29;20046;-95
2022/12/25 05:05:59;;;;;;;51.28;16.77;;;;;;;;;;8176509;29;20043;-94
2022/12/25 05:10:03;;;;;;;43.28;13.98;;;;;;;;;;8162760;29;20048;-94
2022/12/25 05:14:07;;;;;;;56.22;20.08;;;;;;;;;;8161777;29;20075;-94
2022/12/25 05:18:11;;;;;;;125.13;44.78;;;;;;;;;;8178542;29;20055;-93
2022/12/25 05:22:18;;;;;;;61.45;23.13;;;;;;;;;;8162160;29;20102;-95
2022/12/25 05:26:24;;;;;;;133.55;45.35;;;;;;;;;;8179688;29;20044;-94
2022/12/25 05:30:29;;;;;;;90.25;26.80;;;;;;;;;;8180400;29;20051;-95
2022/12/25 05:34:33;;;;;;;81.82;27.30;;;;;;;;;;8160294;29;20086;-95
2022/12/25 05:38:40;;;;;;;73.30;23.33;;;;;;;;;;8179961;29;20107;-95
2022/12/25 05:42:44;;;;;;;83.55;27.80;;;;;;;;;;8178612;29;20044;-94
2022/12/25 05:46:49;;;;;;;77.97;23.63;;;;;;;;;;8161261;29;20048;-94
2022/12/25 05:50:53;;;;;;;92.57;33.55;;;;;;;;;;8178113;29;20059;-95
2022/12/25 05:55:00;;;;;;;68.90;22.75;;;;;;;;;;8162823;29;20052;-94
2022/12/25 05:59:04;;;;;;;59.35;22.17;;;;;;;;;;8179395;29;20052;-95
2022/12/25 06:03:09;;;;;;;87.03;30.67;;;;;;;;;;8164279;29;20051;-95
2022/12/25 06:07:13;;;;;;;60.28;19.85;;;;;;;;;;8178519;29;20044;-93
2022/12/25 06:11:19;;;;;;;53.85;18.52;;;;;;;;;;8179197;29;20055;-93
2022/12/25 06:15:23;;;;;;;56.95;20.50;;;;;;;;;;8161342;29;20079;-93
2022/12/25 06:19:32;;;;;;;52.30;24.48;;;;;;;;;;8161633;29;20075;-93
2022/12/25 06:23:38;;;;;;;37.97;12.25;;;;;;;;;;8162654;29;20052;-93
2022/12/25 06:27:44;;;;;;;40.15;13.32;;;;;;;;;;8181505;29;20051;-93
2022/12/25 06:31:55;;;;;;;42.05;14.98;;;;;;;;;;8168096;29;20099;-96
2022/12/25 06:36:05;;;;;;;42.90;16.30;;;;;;;;;;8175738;29;20070;-96
2022/12/25 06:40:13;;;;;;;50.60;21.38;;;;;;;;;;8170269;29;20054;-95
2022/12/25 06:44:21;;;;;;;44.45;15.75;;;;;;;;;;8168987;29;20048;-94
2022/12/25 06:48:26;;;;;;;40.78;17.05;;;;;;;;;;8175533;29;20056;-94
2022/12/25 06:52:32;;;;;;;41.08;15.85;;;;;;;;;;8175976;29;20055;-93
2022/12/25 06:56:37;;;;;;;30.20;11.73;;;;;;;;;;8160191;29;20044;-96
2022/12/25 07:00:43;;;;;;;32.85;10.65;;;;;;;;;;8176227;29;20127;-94
2022/12/25 07:04:48;;;;;;;35.13;12.77;;;;;;;;;;8160128;29;20046;-95
2022/12/25 07:08:53;;;;;;;31.42;13.63;;;;;;;;;;8160143;29;20051;-95
2022/12/25 07:12:57;;;;;;;37.80;11.70;;;;;;;;;;8175548;29;20043;-94
2022/12/25 07:17:04;;;;;;;42.00;14.13;;;;;;;;;;8175555;29;20036;-94
2022/12/25 07:21:10;;;;;;;58.53;18.50;;;;;;;;;;8178005;29;20043;-95
2022/12/25 07:25:16;;;;;;;53.88;20.50;;;;;;;;;;8177808;29;20039;-95
2022/12/25 07:29:21;;;;;;;42.95;16.88;;;;;;;;;;8159512;29;20059;-94
2022/12/25 07:33:27;;;;;;;42.33;18.02;;;;;;;;;;8158087;29;20043;-94
2022/12/25 07:37:32;;;;;;;37.55;17.55;;;;;;;;;;8160205;29;20062;-94
2022/12/25 07:41:37;;;;;;;39.50;18.05;;;;;;;;;;8157296;29;20059;-95
2022/12/25 07:45:41;;;;;;;43.40;20.13;;;;;;;;;;8174875;29;20040;-94
2022/12/25 07:49:48;;;;;;;33.85;13.20;;;;;;;;;;8160158;29;20051;-94
2022/12/25 07:53:52;;;;;;;26.42;10.57;;;;;;;;;;8176807;29;20051;-94
2022/12/25 07:57:57;;;;;;;27.35;11.35;;;;;;;;;;8159084;29;20067;-94
2022/12/25 08:02:02;;;;;;;23.73;10.65;;;;;;;;;;8159698;29;20047;-93
2022/12/25 08:06:11;;;;;;;27.92;9.43;;;;;;;;;;8181728;29;20044;-94
2022/12/25 08:10:17;;;;;;;27.05;9.23;;;;;;;;;;8157991;29;20104;-94
2022/12/25 08:14:24;;;;;;;22.88;9.52;;;;;;;;;;8156539;29;20060;-95
2022/12/25 08:18:30;;;;;;;22.48;9.35;;;;;;;;;;8162212;29;20040;-96
2022/12/25 08:22:41;;;;;;;22.77;9.05;;;;;;;;;;8167951;29;20091;-95
2022/12/25 08:26:49;;;;;;;24.90;11.23;;;;;;;;;;8182379;28;20039;-96
2022/12/25 08:30:59;;;;;;;22.45;9.23;;;;;;;;;;8202503;28;20095;-96
2022/12/25 08:35:19;;;;;;;22.27;9.32;;;;;;;;;;8186661;29;20047;-95
2022/12/25 08:40:04;;;;;;;21.77;8.30;;;;;;;;;;8208256;28;20068;-93
2022/12/25 08:44:17;;;;;;;34.40;15.98;;;;;;;;;;8184188;29;20040;-93
2022/12/25 08:48:22;;;;;;;31.35;15.00;;;;;;;;;;8169776;29;20043;-95
2022/12/25 08:52:35;;;;;;;24.77;11.65;;;;;;;;;;8179994;29;20075;-96
2022/12/25 08:56:54;;;;;;;25.30;9.25;;;;;;;;;;8201774;29;20052;-96
2022/12/25 09:01:29;;;;;;;28.85;13.25;;;;;;;;;;8187082;29;20058;-95
2022/12/25 09:05:50;;;;;;;24.08;11.52;;;;;;;;;;8105909;29;20073;-94
2022/12/25 09:09:57;;;;;;;24.00;10.43;;;;;;;;;;8101924;29;20056;-93
2022/12/25 09:14:04;;;;;;;25.25;10.43;;;;;;;;;;8101490;29;20077;-93
2022/12/25 09:18:10;;;;;;;20.40;10.10;;;;;;;;;;8106617;29;20201;-95
2022/12/25 09:22:16;;;;;;;23.60;10.38;;;;;;;;;;8105780;29;20127;-94
2022/12/25 09:26:21;;;;;;;25.70;9.93;;;;;;;;;;8103359;29;20055;-94
2022/12/25 09:30:28;;;;;;;25.13;10.13;;;;;;;;;;8103080;29;20064;-95
2022/12/25 09:34:34;;;;;;;33.28;10.68;;;;;;;;;;8105505;29;20078;-95
2022/12/25 09:38:39;;;;;;;25.40;10.45;;;;;;;;;;8102845;29;20051;-96
2022/12/25 09:42:46;;;;;;;32.00;12.25;;;;;;;;;;8124582;29;20053;-94
2022/12/25 09:46:57;;;;;;;29.48;11.80;;;;;;;;;;8128913;29;20056;-95
2022/12/25 09:51:11;;;;;;;32.05;11.95;;;;;;;;;;8161433;29;20052;-95
2022/12/25 09:55:24;;;;;;;28.42;11.80;;;;;;;;;;8150289;29;20052;-95
2022/12/25 09:59:30;;;;;;;24.52;11.52;;;;;;;;;;8147935;29;20056;-95
2022/12/25 10:03:57;;;;;;;30.70;12.10;;;;;;;;;;8151415;29;20044;-95
2022/12/25 10:08:16;;;;;;;30.08;11.32;;;;;;;;;;8163496;29;20056;-96
2022/12/25 10:12:48;;;;;;;30.58;14.40;;;;;;;;;;8162703;29;20048;-96
2022/12/25 10:17:08;;;;;;;28.23;12.68;;;;;;;;;;8130200;29;20052;-95
2022/12/25 10:21:30;;;;;;;34.20;14.25;;;;;;;;;;8163607;29;20048;-95
2022/12/25 10:25:38;;;;;;;37.17;16.20;;;;;;;;;;8151150;29;20048;-95
2022/12/25 10:29:57;;;;;;;31.77;13.57;;;;;;;;;;8156029;29;20052;-96
2022/12/25 10:34:06;;;;;;;30.15;11.43;;;;;;;;;;8161310;29;20087;-96
2022/12/25 10:38:17;;;;;;;26.17;11.48;;;;;;;;;;8155669;29;20052;-91
2022/12/25 10:42:36;;;;;;;25.05;10.18;;;;;;;;;;8150308;29;20051;-92
2022/12/25 10:47:00;;;;;;;29.20;12.32;;;;;;;;;;8110234;29;20061;-96
2022/12/25 10:51:30;;;;;;;28.02;13.38;;;;;;;;;;8101070;29;20162;-96
2022/12/25 10:56:11;;;;;;;31.65;14.05;;;;;;;;;;8087856;29;20048;-93
2022/12/25 11:00:32;;;;;;;25.67;11.85;;;;;;;;;;8104479;29;20134;-96
2022/12/25 11:05:04;;;;;;;28.83;12.15;;;;;;;;;;8112142;29;20037;-95
2022/12/25 11:09:20;;;;;;;32.53;15.80;;;;;;;;;;8097308;29;20098;-96
2022/12/25 11:13:57;;;;;;;27.55;13.38;;;;;;;;;;8099990;29;20057;-96
2022/12/25 11:23:52;;;;;;;31.77;14.25;;;;;;;;;;8050906;29;20080;-96
2022/12/25 12:04:24;;;;;;;28.35;15.18;;;;;;;;;;7913399;30;20135;-95
2022/12/25 12:18:34;;;;;;;103.47;53.63;;;;;;;;;;8208363;29;20098;-95
2022/12/25 12:22:52;;;;;;;36.88;19.48;;;;;;;;;;8204513;29;20126;-95
2022/12/25 12:27:06;;;;;;;35.50;17.25;;;;;;;;;;8189033;29;20051;-96
2022/12/25 12:31:16;;;;;;;31.45;14.57;;;;;;;;;;8188949;29;20069;-95
2022/12/25 12:35:32;;;;;;;31.52;14.93;;;;;;;;;;8190721;29;20047;-94
2022/12/25 13:18:41;;;;;;;20.60;10.77;;;;;;;;;;8116990;29;20152;-92
2022/12/25 13:50:45;;;;;;;20.30;10.13;;;;;;;;;;10054392;22;11228609;-96
2022/12/25 13:55:07;;;;;;;18.67;9.68;;;;;;;;;;10507528;22;20017;-96
2022/12/25 13:59:24;;;;;;;39.13;20.17;;;;;;;;;;10503383;22;20318;-95
2022/12/25 14:03:51;;;;;;;66.82;28.42;;;;;;;;;;10531145;22;20029;-95
2022/12/25 14:08:33;;;;;;;36.15;18.60;;;;;;;;;;10527596;22;20042;-95
2022/12/25 14:12:42;;;;;;;109.68;43.53;;;;;;;;;;10490911;22;20015;-94
2022/12/25 14:16:49;;;;;;;68.28;25.90;;;;;;;;;;10487212;22;20015;-93
2022/12/25 14:21:01;;;;;;;76.57;32.17;;;;;;;;;;10486254;22;20011;-95
2022/12/25 14:25:16;;;;;;;110.88;46.63;;;;;;;;;;10483008;22;20016;-95
2022/12/25 14:33:25;;;;;;;37.70;17.15;;;;;;;;;;10459548;22;20019;-90
2022/12/25 14:37:33;;;;;;;39.42;18.38;;;;;;;;;;10474865;22;20011;-90
2022/12/25 14:41:40;;;;;;;55.40;24.45;;;;;;;;;;10475662;22;20015;-91
2022/12/25 14:45:54;;;;;;;17.35;7.32;;;;;;;;;;10430656;22;20022;-90
2022/12/25 14:50:00;;;;;;;29.33;13.20;;;;;;;;;;10465230;22;20042;-91
2022/12/25 14:54:14;;;;;;;49.05;21.15;;;;;;;;;;10419689;22;20011;-92
2022/12/25 14:58:22;;;;;;;87.72;35.97;;;;;;;;;;10463623;22;20015;-91
2022/12/25 15:02:27;;;;;;;69.47;27.70;;;;;;;;;;10462855;22;20015;-95
2022/12/25 15:06:33;;;;;;;45.20;6.50;;;;;;;;;;10416964;22;20018;-91
2022/12/25 15:10:45;;;;;;;14.27;6.35;;;;;;;;;;10417957;22;20148;-92
2022/12/25 15:14:49;;;;;;;19.20;9.35;;;;;;;;;;10444662;22;20041;-92
2022/12/25 15:18:55;;;;;;;42.38;21.63;;;;;;;;;;10417821;22;20012;-93
2022/12/25 15:23:03;;;;;;;37.08;15.85;;;;;;;;;;10447722;22;20015;-93
2022/12/25 15:27:16;;;;;;;51.22;20.15;;;;;;;;;;10422042;22;20012;-94
2022/12/25 15:31:23;;;;;;;50.97;20.80;;;;;;;;;;10417856;22;20015;-94
2022/12/25 15:35:32;;;;;;;38.58;15.32;;;;;;;;;;10417176;22;20061;-94
2022/12/25 15:39:39;;;;;;;81.03;31.77;;;;;;;;;;10419733;22;20019;-95
2022/12/25 15:43:44;;;;;;;60.97;25.25;;;;;;;;;;10419343;22;20015;-94
2022/12/25 15:47:50;;;;;;;68.57;23.98;;;;;;;;;;10417238;22;20015;-94
2022/12/25 15:51:54;;;;;;;49.63;23.10;;;;;;;;;;10419552;22;20018;-95
2022/12/25 15:56:02;;;;;;;77.80;30.33;;;;;;;;;;10419003;22;20008;-94
2022/12/25 16:00:08;;;;;;;50.28;19.35;;;;;;;;;;10463885;22;20030;-91
2022/12/25 16:04:12;;;;;;;85.75;24.58;;;;;;;;;;10420292;22;20069;-91
2022/12/25 16:08:16;;;;;;;47.20;16.65;;;;;;;;;;10449151;22;20011;-92
2022/12/25 16:12:23;;;;;;;50.20;18.00;;;;;;;;;;10424449;22;20011;-93
2022/12/25 16:16:26;;;;;;;53.97;17.30;;;;;;;;;;10464392;22;20018;-91
2022/12/25 16:20:31;;;;;;;49.15;15.80;;;;;;;;;;10445001;22;20015;-91
2022/12/25 16:24:35;;;;;;;48.03;16.70;;;;;;;;;;10446314;22;20015;-91
2022/12/25 16:28:42;;;;;;;35.20;12.95;;;;;;;;;;10422022;22;20015;-92
2022/12/25 16:32:50;;;;;;;42.75;18.73;;;;;;;;;;10392736;22;20015;-91
2022/12/25 16:36:55;;;;;;;53.55;24.08;;;;;;;;;;10413862;22;20069;-93
2022/12/25 16:41:02;;;;;;;109.28;41.20;;;;;;;;;;10395093;22;20024;-92
2022/12/25 16:45:10;;;;;;;215.88;73.85;;;;;;;;;;10393948;22;20015;-93
2022/12/25 16:49:14;;;;;;;70.25;28.70;;;;;;;;;;10395788;22;20038;-94
2022/12/25 16:53:19;;;;;;;45.33;20.75;;;;;;;;;;10393380;22;20012;-90
2022/12/25 16:57:23;;;;;;;27.75;10.95;;;;;;;;;;10393850;22;20015;-92
2022/12/25 17:01:29;;;;;;;35.78;15.25;;;;;;;;;;10395991;22;20041;-91
2022/12/25 17:05:34;;;;;;;44.22;17.95;;;;;;;;;;10392801;22;20016;-90
2022/12/25 17:09:39;;;;;;;33.22;12.52;;;;;;;;;;10395764;22;20007;-91
2022/12/25 17:13:47;;;;;;;34.17;13.35;;;;;;;;;;10397997;22;20016;-91
2022/12/25 17:17:54;;;;;;;29.27;12.25;;;;;;;;;;10397437;22;20016;-93
2022/12/25 17:21:58;;;;;;;96.25;39.28;;;;;;;;;;10399939;22;20037;-91
2022/12/25 17:26:11;;;;;;;92.20;35.80;;;;;;;;;;10415610;22;20018;-91
2022/12/25 17:30:26;;;;;;;71.90;29.52;;;;;;;;;;10432537;22;20008;-92
2022/12/25 17:34:41;;;;;;;79.03;32.72;;;;;;;;;;10431631;22;20021;-92
2022/12/25 17:38:53;;;;;;;61.20;28.02;;;;;;;;;;10482898;22;20027;-94
2022/12/25 17:43:02;;;;;;;65.65;24.65;;;;;;;;;;10433253;22;20011;-92
2022/12/25 17:47:08;;;;;;;46.30;19.85;;;;;;;;;;10427484;22;20012;-92
2022/12/25 17:51:21;;;;;;;44.88;17.60;;;;;;;;;;10429272;22;20019;-95
2022/12/25 17:55:32;;;;;;;45.25;17.17;;;;;;;;;;10426176;22;20011;-92
2022/12/25 17:59:38;;;;;;;61.05;23.23;;;;;;;;;;10422056;22;20015;-93
2022/12/25 18:03:44;;;;;;;65.45;27.05;;;;;;;;;;10461565;22;20092;-92
2022/12/25 18:07:53;;;;;;;66.50;28.67;;;;;;;;;;10451924;22;20012;-94
2022/12/25 18:12:00;;;;;;;70.35;26.95;;;;;;;;;;10415923;22;20015;-91
2022/12/25 18:16:05;;;;;;;210.70;65.57;;;;;;;;;;10415105;22;20011;-90
2022/12/25 18:20:11;;;;;;;143.80;44.55;;;;;;;;;;10415030;22;20068;-92
2022/12/25 18:24:19;;;;;;;160.27;49.78;;;;;;;;;;10417249;22;20031;-91
2022/12/25 18:28:25;;;;;;;129.48;43.33;;;;;;;;;;10418075;22;20015;-91
2022/12/25 18:32:29;;;;;;;203.02;72.68;;;;;;;;;;10446276;22;20011;-93
2022/12/25 18:36:35;;;;;;;93.32;35.17;;;;;;;;;;10420331;22;20031;-95
2022/12/25 18:40:44;;;;;;;75.28;27.02;;;;;;;;;;10420352;22;20015;-93
2022/12/25 18:44:48;;;;;;;110.72;37.08;;;;;;;;;;10464207;22;20041;-94
2022/12/25 18:48:53;;;;;;;102.30;32.63;;;;;;;;;;10445630;22;20335;-93
2022/12/25 18:52:56;;;;;;;95.20;33.17;;;;;;;;;;10446563;22;20022;-92
2022/12/25 18:57:03;;;;;;;92.15;31.88;;;;;;;;;;10446850;22;20007;-93
2022/12/25 19:01:13;;;;;;;53.83;20.75;;;;;;;;;;10417986;22;20019;-93
2022/12/25 19:05:18;;;;;;;65.97;22.83;;;;;;;;;;10464622;22;20037;-91
2022/12/25 19:09:23;;;;;;;68.80;22.38;;;;;;;;;;10421518;22;20019;-96
2022/12/25 19:13:29;;;;;;;68.45;24.70;;;;;;;;;;10447943;22;20037;-93
2022/12/25 19:17:34;;;;;;;72.32;26.63;;;;;;;;;;10420312;22;20011;-96
2022/12/25 19:21:40;;;;;;;91.78;32.92;;;;;;;;;;10471589;22;20015;-95
2022/12/25 19:25:48;;;;;;;136.77;47.38;;;;;;;;;;10442471;22;20017;-95
2022/12/25 19:29:58;;;;;;;157.63;47.92;;;;;;;;;;10437273;22;20072;-95
2022/12/25 19:34:04;;;;;;;187.18;53.83;;;;;;;;;;10433615;22;20064;-89
2022/12/25 19:38:08;;;;;;;84.18;29.30;;;;;;;;;;10422494;22;20011;-92
2022/12/25 19:42:13;;;;;;;90.45;29.30;;;;;;;;;;10418797;22;20011;-93
2022/12/25 19:46:22;;;;;;;95.25;28.30;;;;;;;;;;10418118;22;20011;-92
2022/12/25 19:50:29;;;;;;;59.50;21.10;;;;;;;;;;10418421;22;20012;-94
2022/12/25 19:54:33;;;;;;;69.30;21.63;;;;;;;;;;10418156;22;20011;-93
2022/12/25 19:58:38;;;;;;;64.65;22.35;;;;;;;;;;10419282;22;20011;-93
2022/12/25 20:02:46;;;;;;;73.22;24.40;;;;;;;;;;10450939;22;20015;-95
2022/12/25 20:06:56;;;;;;;51.63;19.77;;;;;;;;;;10426075;22;20015;-95
2022/12/25 20:11:11;;;;;;;73.53;22.30;;;;;;;;;;10429887;22;20045;-96
2022/12/25 20:15:24;;;;;;;73.90;21.88;;;;;;;;;;10435941;22;20011;-93
2022/12/25 20:19:58;;;;;;;48.97;17.00;;;;;;;;;;10437923;22;20022;-96
2022/12/25 20:24:23;;;;;;;78.22;26.20;;;;;;;;;;10460991;22;20041;-96
2022/12/25 20:28:33;;;;;;;72.43;22.58;;;;;;;;;;10422849;22;20011;-95
2022/12/25 20:32:44;;;;;;;70.15;21.85;;;;;;;;;;10400005;22;20015;-96
2022/12/25 20:41:56;;;;;;;65.57;20.85;;;;;;;;;;10402633;22;20274;-96
2022/12/25 20:46:15;;;;;;;52.25;19.95;;;;;;;;;;10399067;22;20424;-96
2022/12/25 20:50:20;;;;;;;58.80;20.40;;;;;;;;;;10392681;22;20016;-95
2022/12/25 20:54:32;;;;;;;60.30;22.13;;;;;;;;;;10396013;22;20016;-96
2022/12/25 20:58:41;;;;;;;76.35;25.63;;;;;;;;;;10401365;22;20023;-95
2022/12/25 21:02:57;;;;;;;53.63;21.13;;;;;;;;;;10408896;22;20011;-94
2022/12/25 21:07:07;;;;;;;56.50;20.17;;;;;;;;;;10357970;22;20054;-96
2022/12/25 21:11:14;;;;;;;86.07;28.73;;;;;;;;;;10414150;22;20063;-95
2022/12/25 21:15:23;;;;;;;84.78;25.85;;;;;;;;;;10427615;22;20019;-96
2022/12/25 21:19:28;;;;;;;69.13;22.27;;;;;;;;;;10408959;22;20025;-96
2022/12/25 21:23:36;;;;;;;230.98;27.17;;;;;;;;;;10396553;22;20012;-95
2022/12/25 21:27:42;;;;;;;69.03;24.83;;;;;;;;;;10400259;22;20023;-96
2022/12/25 21:36:14;;;;;;;58.72;17.95;;;;;;;;;;10430824;22;20012;-96
2022/12/25 21:40:25;;;;;;;97.32;39.10;;;;;;;;;;10455947;22;20014;-96
2022/12/25 21:44:33;;;;;;;59.83;20.00;;;;;;;;;;10447867;22;20019;-96
2022/12/25 21:48:45;;;;;;;48.00;17.42;;;;;;;;;;10435052;22;20012;-96
2022/12/25 21:52:49;;;;;;;56.50;19.42;;;;;;;;;;10427030;22;20011;-95
2022/12/25 21:56:56;;;;;;;60.80;24.15;;;;;;;;;;10417896;22;20072;-96
2022/12/25 22:01:04;;;;;;;51.28;17.67;;;;;;;;;;10466614;22;20519;-96
2022/12/25 22:07:15;;;;;;;51.90;18.38;;;;;;;;;;10421330;22;20072;-95
2022/12/25 22:09:38;;;;;;;67.70;24.73;;;;;;;;;;10422266;22;20011;-96
2022/12/25 22:22:34;;;;;;;36.95;13.68;;;;;;;;;;10449031;22;20093;-95
2022/12/25 22:26:38;;;;;;;36.88;13.98;;;;;;;;;;10421403;22;20015;-95
2022/12/25 22:30:46;;;;;;;41.95;15.30;;;;;;;;;;10420684;22;20019;-95
2022/12/25 22:34:52;;;;;;;36.53;13.98;;;;;;;;;;10420158;22;20037;-96
2022/12/25 22:39:00;;;;;;;38.60;16.42;;;;;;;;;;10471714;22;20014;-95
2022/12/25 22:43:07;;;;;;;43.83;22.35;;;;;;;;;;10483132;22;20019;-94
2022/12/25 22:47:27;;;;;;;58.58;28.45;;;;;;;;;;10434709;22;20086;-92
2022/12/25 22:51:37;;;;;;;48.90;24.48;;;;;;;;;;10436806;22;20018;-91
2022/12/25 22:55:53;;;;;;;54.72;32.03;;;;;;;;;;10435413;22;20030;-91
2022/12/25 23:09:10;;;;;;;118.78;49.20;;;;;;;;;;10265990;23;20013;-91
2022/12/25 23:28:00;;;;;;;33.85;15.07;;;;;;;;;;10220833;23;20060;-91
